sensor_id;sensor_type;location;lat;lon;timestamp;pressure;altitude;pressure_sealevel;temperature;humidity
3082;BME280;1551;51.046;7.010;2023-04-03T00:01:03;102214.00;;;4.12;nan
3082;BME280;1551;51.046;7.010;2023-04-03T00:03:52;102189.59;;;4.14;nan
3082;BME280;1551;51.046;7.010;2023-04-03T00:06:41;102182.22;;;4.00;nan
3082;BME280;1551;51.046;7.010;2023-04-03T00:09:30;102188.41;;;4.06;nan
3082;BME280;1551;51.046;7.010;2023-04-03T00:12:19;102208.66;;;4.06;nan
3082;BME280;1551;51.046;7.010;2023-04-03T00:15:09;102184.03;;;4.02;nan
3082;BME280;1551;51.046;7.010;2023-04-03T00:17:58;102200.16;;;4.04;nan
3082;BME280;1551;51.046;7.010;2023-04-03T00:23:36;102191.06;;;4.09;nan
3082;BME280;1551;51.046;7.010;2023-04-03T00:26:25;102201.34;;;4.12;nan
3082;BME280;1551;51.046;7.010;2023-04-03T00:29:14;102209.50;;;4.05;nan
3082;BME280;1551;51.046;7.010;2023-04-03T00:32:03;102206.75;;;4.01;nan
3082;BME280;1551;51.046;7.010;2023-04-03T00:34:52;102163.69;;;3.80;nan
3082;BME280;1551;51.046;7.010;2023-04-03T00:37:42;102189.28;;;3.86;nan
3082;BME280;1551;51.046;7.010;2023-04-03T00:40:39;102207.75;;;3.84;nan
3082;BME280;1551;51.046;7.010;2023-04-03T00:43:30;102199.78;;;3.75;nan
3082;BME280;1551;51.046;7.010;2023-04-03T00:46:19;102201.91;;;3.66;nan
3082;BME280;1551;51.046;7.010;2023-04-03T00:49:09;102182.25;;;3.60;nan
3082;BME280;1551;51.046;7.010;2023-04-03T00:51:58;102173.38;;;3.49;nan
3082;BME280;1551;51.046;7.010;2023-04-03T00:54:50;102180.28;;;3.53;nan
3082;BME280;1551;51.046;7.010;2023-04-03T00:57:42;102184.94;;;3.44;nan
3082;BME280;1551;51.046;7.010;2023-04-03T01:00:31;102193.63;;;3.49;nan
3082;BME280;1551;51.046;7.010;2023-04-03T01:03:20;102178.34;;;3.47;nan
3082;BME280;1551;51.046;7.010;2023-04-03T01:06:09;102179.94;;;3.45;nan
3082;BME280;1551;51.046;7.010;2023-04-03T01:08:59;102187.47;;;3.44;nan
3082;BME280;1551;51.046;7.010;2023-04-03T01:11:48;102179.41;;;3.33;nan
3082;BME280;1551;51.046;7.010;2023-04-03T01:14:38;102171.56;;;3.27;nan
3082;BME280;1551;51.046;7.010;2023-04-03T01:17:40;102175.91;;;3.30;nan
3082;BME280;1551;51.046;7.010;2023-04-03T01:26:29;102165.41;;;3.21;nan
3082;BME280;1551;51.046;7.010;2023-04-03T01:29:18;102168.97;;;3.26;nan
3082;BME280;1551;51.046;7.010;2023-04-03T01:37:46;102203.00;;;3.13;nan
3082;BME280;1551;51.046;7.010;2023-04-03T01:40:35;102206.97;;;3.08;nan
3082;BME280;1551;51.046;7.010;2023-04-03T01:43:26;102186.81;;;3.10;nan
3082;BME280;1551;51.046;7.010;2023-04-03T01:46:19;102178.56;;;3.14;nan
3082;BME280;1551;51.046;7.010;2023-04-03T01:51:58;102187.75;;;3.12;nan
3082;BME280;1551;51.046;7.010;2023-04-03T01:54:47;102161.31;;;3.05;nan
3082;BME280;1551;51.046;7.010;2023-04-03T01:57:36;102183.44;;;3.09;nan
3082;BME280;1551;51.046;7.010;2023-04-03T02:00:25;102190.06;;;3.07;nan
3082;BME280;1551;51.046;7.010;2023-04-03T02:03:15;102165.44;;;3.03;nan
3082;BME280;1551;51.046;7.010;2023-04-03T02:06:05;102185.34;;;3.15;nan
3082;BME280;1551;51.046;7.010;2023-04-03T02:08:54;102175.22;;;3.15;nan
3082;BME280;1551;51.046;7.010;2023-04-03T02:11:43;102209.03;;;3.17;nan
3082;BME280;1551;51.046;7.010;2023-04-03T02:17:22;102187.22;;;3.19;nan
3082;BME280;1551;51.046;7.010;2023-04-03T02:20:11;102192.22;;;3.17;nan
3082;BME280;1551;51.046;7.010;2023-04-03T02:23:00;102172.59;;;3.12;nan
3082;BME280;1551;51.046;7.010;2023-04-03T02:25:50;102228.44;;;3.16;nan
3082;BME280;1551;51.046;7.010;2023-04-03T02:34:17;102186.28;;;3.17;nan
3082;BME280;1551;51.046;7.010;2023-04-03T02:37:08;102216.50;;;3.14;nan
3082;BME280;1551;51.046;7.010;2023-04-03T02:39:57;102158.47;;;2.98;nan
3082;BME280;1551;51.046;7.010;2023-04-03T02:42:46;102207.47;;;3.19;nan
3082;BME280;1551;51.046;7.010;2023-04-03T02:45:35;102204.66;;;3.13;nan
3082;BME280;1551;51.046;7.010;2023-04-03T02:48:25;102211.06;;;3.05;nan
3082;BME280;1551;51.046;7.010;2023-04-03T02:51:16;102216.13;;;3.05;nan
3082;BME280;1551;51.046;7.010;2023-04-03T02:54:05;102205.84;;;3.02;nan
3082;BME280;1551;51.046;7.010;2023-04-03T02:56:57;102219.38;;;3.02;nan
3082;BME280;1551;51.046;7.010;2023-04-03T02:59:46;102227.00;;;3.04;nan
3082;BME280;1551;51.046;7.010;2023-04-03T03:02:36;102214.78;;;3.13;nan
3082;BME280;1551;51.046;7.010;2023-04-03T03:05:25;102195.47;;;3.15;nan
3082;BME280;1551;51.046;7.010;2023-04-03T03:08:15;102205.38;;;3.10;nan
3082;BME280;1551;51.046;7.010;2023-04-03T03:11:04;102203.56;;;3.08;nan
3082;BME280;1551;51.046;7.010;2023-04-03T03:13:54;102210.25;;;3.06;nan
3082;BME280;1551;51.046;7.010;2023-04-03T03:16:43;102181.75;;;3.10;nan
3082;BME280;1551;51.046;7.010;2023-04-03T03:19:33;102221.50;;;3.12;nan
3082;BME280;1551;51.046;7.010;2023-04-03T03:22:23;102207.75;;;3.07;nan
3082;BME280;1551;51.046;7.010;2023-04-03T03:25:12;102221.44;;;3.11;nan
3082;BME280;1551;51.046;7.010;2023-04-03T03:28:01;102214.03;;;3.15;nan
3082;BME280;1551;51.046;7.010;2023-04-03T03:30:50;102210.59;;;3.13;nan
3082;BME280;1551;51.046;7.010;2023-04-03T03:33:40;102209.66;;;3.11;nan
3082;BME280;1551;51.046;7.010;2023-04-03T03:36:30;102220.69;;;3.13;nan
3082;BME280;1551;51.046;7.010;2023-04-03T03:39:20;102206.97;;;3.08;nan
3082;BME280;1551;51.046;7.010;2023-04-03T03:42:09;102224.00;;;3.12;nan
3082;BME280;1551;51.046;7.010;2023-04-03T03:44:58;102188.56;;;3.11;nan
3082;BME280;1551;51.046;7.010;2023-04-03T03:47:48;102209.47;;;3.07;nan
3082;BME280;1551;51.046;7.010;2023-04-03T03:50:38;102208.00;;;3.12;nan
3082;BME280;1551;51.046;7.010;2023-04-03T03:53:27;102212.91;;;3.09;nan
3082;BME280;1551;51.046;7.010;2023-04-03T03:56:20;102192.69;;;3.09;nan
3082;BME280;1551;51.046;7.010;2023-04-03T03:59:11;102187.75;;;3.12;nan
3082;BME280;1551;51.046;7.010;2023-04-03T04:02:01;102186.75;;;3.08;nan
3082;BME280;1551;51.046;7.010;2023-04-03T04:04:50;102185.88;;;3.08;nan
3082;BME280;1551;51.046;7.010;2023-04-03T04:07:39;102214.63;;;3.10;nan
3082;BME280;1551;51.046;7.010;2023-04-03T04:10:29;102190.00;;;3.06;nan
3082;BME280;1551;51.046;7.010;2023-04-03T04:13:19;102193.59;;;3.11;nan
3082;BME280;1551;51.046;7.010;2023-04-03T04:16:09;102201.00;;;3.06;nan
3082;BME280;1551;51.046;7.010;2023-04-03T04:18:59;102218.75;;;3.08;nan
3082;BME280;1551;51.046;7.010;2023-04-03T04:21:48;102210.91;;;3.02;nan
3082;BME280;1551;51.046;7.010;2023-04-03T04:24:37;102212.03;;;3.08;nan
3082;BME280;1551;51.046;7.010;2023-04-03T04:27:26;102218.75;;;3.08;nan
3082;BME280;1551;51.046;7.010;2023-04-03T04:30:15;102227.75;;;3.01;nan
3082;BME280;1551;51.046;7.010;2023-04-03T04:35:56;102226.00;;;3.00;nan
3082;BME280;1551;51.046;7.010;2023-04-03T04:38:46;102227.00;;;3.04;nan
3082;BME280;1551;51.046;7.010;2023-04-03T04:41:35;102206.06;;;3.06;nan
3082;BME280;1551;51.046;7.010;2023-04-03T04:47:15;102217.63;;;3.01;nan
3082;BME280;1551;51.046;7.010;2023-04-03T04:50:05;102236.25;;;3.03;nan
3082;BME280;1551;51.046;7.010;2023-04-03T04:52:55;102212.63;;;3.03;nan
3082;BME280;1551;51.046;7.010;2023-04-03T04:55:44;102234.66;;;3.05;nan
3082;BME280;1551;51.046;7.010;2023-04-03T04:58:33;102238.06;;;3.06;nan
3082;BME280;1551;51.046;7.010;2023-04-03T05:01:24;102237.34;;;3.08;nan
3082;BME280;1551;51.046;7.010;2023-04-03T05:04:28;102250.84;;;3.09;nan
3082;BME280;1551;51.046;7.010;2023-04-03T05:07:24;102247.50;;;3.10;nan
3082;BME280;1551;51.046;7.010;2023-04-03T05:10:13;102246.50;;;3.06;nan
3082;BME280;1551;51.046;7.010;2023-04-03T05:13:02;102266.03;;;3.09;nan
3082;BME280;1551;51.046;7.010;2023-04-03T05:15:51;102227.88;;;3.04;nan
3082;BME280;1551;51.046;7.010;2023-04-03T05:18:40;102242.38;;;3.08;nan
3082;BME280;1551;51.046;7.010;2023-04-03T05:21:33;102254.88;;;3.05;nan
3082;BME280;1551;51.046;7.010;2023-04-03T05:24:26;102254.84;;;3.04;nan
3082;BME280;1551;51.046;7.010;2023-04-03T05:27:15;102252.66;;;3.11;nan
3082;BME280;1551;51.046;7.010;2023-04-03T05:30:09;102254.38;;;3.12;nan
3082;BME280;1551;51.046;7.010;2023-04-03T05:36:04;102278.00;;;3.13;nan
3082;BME280;1551;51.046;7.010;2023-04-03T05:38:53;102265.50;;;3.16;nan
3082;BME280;1551;51.046;7.010;2023-04-03T05:41:44;102280.06;;;3.21;nan
3082;BME280;1551;51.046;7.010;2023-04-03T05:44:34;102256.66;;;3.25;nan
3082;BME280;1551;51.046;7.010;2023-04-03T05:47:24;102277.97;;;3.30;nan
3082;BME280;1551;51.046;7.010;2023-04-03T05:50:14;102282.63;;;3.40;nan
3082;BME280;1551;51.046;7.010;2023-04-03T05:53:03;102289.63;;;3.46;nan
3082;BME280;1551;51.046;7.010;2023-04-03T05:55:55;102283.19;;;3.53;nan
3082;BME280;1551;51.046;7.010;2023-04-03T05:58:44;102286.09;;;3.62;nan
3082;BME280;1551;51.046;7.010;2023-04-03T06:01:33;102282.50;;;3.76;nan
3082;BME280;1551;51.046;7.010;2023-04-03T06:04:23;102290.78;;;3.91;nan
3082;BME280;1551;51.046;7.010;2023-04-03T06:07:15;102282.81;;;4.02;nan
3082;BME280;1551;51.046;7.010;2023-04-03T06:10:04;102305.25;;;4.14;nan
3082;BME280;1551;51.046;7.010;2023-04-03T06:12:54;102304.84;;;4.24;nan
3082;BME280;1551;51.046;7.010;2023-04-03T06:15:43;102301.22;;;4.38;nan
3082;BME280;1551;51.046;7.010;2023-04-03T06:18:32;102308.53;;;4.53;nan
3082;BME280;1551;51.046;7.010;2023-04-03T06:21:21;102316.84;;;4.69;nan
3082;BME280;1551;51.046;7.010;2023-04-03T06:24:14;102313.44;;;4.90;nan
3082;BME280;1551;51.046;7.010;2023-04-03T06:29:53;102318.56;;;5.57;nan
3082;BME280;1551;51.046;7.010;2023-04-03T06:32:42;102321.78;;;5.77;nan
3082;BME280;1551;51.046;7.010;2023-04-03T06:35:31;102303.91;;;5.98;nan
3082;BME280;1551;51.046;7.010;2023-04-03T06:38:20;102307.19;;;6.19;nan
3082;BME280;1551;51.046;7.010;2023-04-03T06:41:09;102315.38;;;6.36;nan
3082;BME280;1551;51.046;7.010;2023-04-03T06:43:58;102303.06;;;6.48;nan
3082;BME280;1551;51.046;7.010;2023-04-03T06:46:47;102309.69;;;6.69;nan
3082;BME280;1551;51.046;7.010;2023-04-03T06:49:37;102300.84;;;6.85;nan
3082;BME280;1551;51.046;7.010;2023-04-03T06:55:15;102311.88;;;7.40;nan
3082;BME280;1551;51.046;7.010;2023-04-03T06:58:04;102316.59;;;7.56;nan
3082;BME280;1551;51.046;7.010;2023-04-03T07:00:53;102317.41;;;7.85;nan
3082;BME280;1551;51.046;7.010;2023-04-03T07:03:43;102299.84;;;7.97;nan
3082;BME280;1551;51.046;7.010;2023-04-03T07:06:32;102313.69;;;8.05;nan
3082;BME280;1551;51.046;7.010;2023-04-03T07:09:22;102313.16;;;8.18;nan
3082;BME280;1551;51.046;7.010;2023-04-03T07:12:11;102314.28;;;8.28;nan
3082;BME280;1551;51.046;7.010;2023-04-03T07:15:00;102316.69;;;8.55;nan
3082;BME280;1551;51.046;7.010;2023-04-03T07:17:48;102332.47;;;8.74;nan
3082;BME280;1551;51.046;7.010;2023-04-03T07:20:38;102332.00;;;8.55;nan
3082;BME280;1551;51.046;7.010;2023-04-03T07:23:27;102339.53;;;8.50;nan
3082;BME280;1551;51.046;7.010;2023-04-03T07:26:17;102329.47;;;8.56;nan
3082;BME280;1551;51.046;7.010;2023-04-03T07:29:06;102333.38;;;8.76;nan
3082;BME280;1551;51.046;7.010;2023-04-03T07:31:55;102355.81;;;8.91;nan
3082;BME280;1551;51.046;7.010;2023-04-03T07:34:44;102326.47;;;9.10;nan
3082;BME280;1551;51.046;7.010;2023-04-03T07:37:33;102341.16;;;9.20;nan
3082;BME280;1551;51.046;7.010;2023-04-03T07:40:22;102332.13;;;9.34;nan
3082;BME280;1551;51.046;7.010;2023-04-03T07:43:11;102335.97;;;9.54;nan
3082;BME280;1551;51.046;7.010;2023-04-03T07:46:00;102328.41;;;9.60;nan
3082;BME280;1551;51.046;7.010;2023-04-03T07:48:49;102342.41;;;9.77;nan
3082;BME280;1551;51.046;7.010;2023-04-03T07:51:38;102335.78;;;9.87;nan
3082;BME280;1551;51.046;7.010;2023-04-03T07:54:28;102343.09;;;10.12;nan
3082;BME280;1551;51.046;7.010;2023-04-03T07:57:17;102349.25;;;10.23;nan
3082;BME280;1551;51.046;7.010;2023-04-03T08:00:07;102360.56;;;9.91;nan
3082;BME280;1551;51.046;7.010;2023-04-03T08:03:05;102294.03;;;9.46;nan
3082;BME280;1551;51.046;7.010;2023-04-03T08:05:54;102346.41;;;10.08;nan
3082;BME280;1551;51.046;7.010;2023-04-03T08:08:43;102339.69;;;10.13;nan
3082;BME280;1551;51.046;7.010;2023-04-03T08:11:32;102346.25;;;10.45;nan
3082;BME280;1551;51.046;7.010;2023-04-03T08:14:22;102334.03;;;10.81;nan
3082;BME280;1551;51.046;7.010;2023-04-03T08:17:11;102342.25;;;11.19;nan
3082;BME280;1551;51.046;7.010;2023-04-03T08:20:04;102345.66;;;11.17;nan
3082;BME280;1551;51.046;7.010;2023-04-03T08:25:43;102366.63;;;10.90;nan
3082;BME280;1551;51.046;7.010;2023-04-03T08:28:33;102348.25;;;11.18;nan
3082;BME280;1551;51.046;7.010;2023-04-03T08:31:23;102353.63;;;11.36;nan
3082;BME280;1551;51.046;7.010;2023-04-03T08:34:13;102360.78;;;11.63;nan
3082;BME280;1551;51.046;7.010;2023-04-03T08:37:03;102347.41;;;11.85;nan
3082;BME280;1551;51.046;7.010;2023-04-03T08:45:53;102349.31;;;12.01;nan
3082;BME280;1551;51.046;7.010;2023-04-03T08:48:44;102357.69;;;11.87;nan
3082;BME280;1551;51.046;7.010;2023-04-03T08:51:33;102350.38;;;12.23;nan
3082;BME280;1551;51.046;7.010;2023-04-03T08:54:30;102361.72;;;12.45;nan
3082;BME280;1551;51.046;7.010;2023-04-03T09:00:22;102351.53;;;12.55;nan
3082;BME280;1551;51.046;7.010;2023-04-03T09:03:14;102344.78;;;12.66;nan
3082;BME280;1551;51.046;7.010;2023-04-03T09:06:12;102352.28;;;12.43;nan
3082;BME280;1551;51.046;7.010;2023-04-03T09:15:24;102355.06;;;12.69;nan
3082;BME280;1551;51.046;7.010;2023-04-03T09:18:16;102356.31;;;13.15;nan
3082;BME280;1551;51.046;7.010;2023-04-03T09:21:14;102349.50;;;13.22;nan
3082;BME280;1551;51.046;7.010;2023-04-03T09:24:06;102358.75;;;13.03;nan
3082;BME280;1551;51.046;7.010;2023-04-03T09:27:01;102367.28;;;12.97;nan
3082;BME280;1551;51.046;7.010;2023-04-03T09:29:56;102367.28;;;12.97;nan
3082;BME280;1551;51.046;7.010;2023-04-03T09:32:47;102369.97;;;13.09;nan
3082;BME280;1551;51.046;7.010;2023-04-03T09:35:37;102365.00;;;13.38;nan
3082;BME280;1551;51.046;7.010;2023-04-03T09:38:29;102361.75;;;13.80;nan
3082;BME280;1551;51.046;7.010;2023-04-03T09:41:18;102373.00;;;14.14;nan
3082;BME280;1551;51.046;7.010;2023-04-03T09:44:22;102356.69;;;14.07;nan
3082;BME280;1551;51.046;7.010;2023-04-03T09:47:25;102353.31;;;14.40;nan
3082;BME280;1551;51.046;7.010;2023-04-03T09:50:19;102358.50;;;14.64;nan
3082;BME280;1551;51.046;7.010;2023-04-03T09:56:25;102354.84;;;15.71;nan
3082;BME280;1551;51.046;7.010;2023-04-03T09:59:16;102363.34;;;15.93;nan
3082;BME280;1551;51.046;7.010;2023-04-03T10:02:45;102359.78;;;16.12;nan
3082;BME280;1551;51.046;7.010;2023-04-03T10:05:38;102360.66;;;16.12;nan
3082;BME280;1551;51.046;7.010;2023-04-03T10:08:31;102358.84;;;16.20;nan
3082;BME280;1551;51.046;7.010;2023-04-03T10:11:20;102343.72;;;16.87;nan
3082;BME280;1551;51.046;7.010;2023-04-03T10:14:16;102349.44;;;17.18;nan
3082;BME280;1551;51.046;7.010;2023-04-03T10:20:37;102336.69;;;18.35;nan
3082;BME280;1551;51.046;7.010;2023-04-03T10:23:40;102333.06;;;18.47;nan
3082;BME280;1551;51.046;7.010;2023-04-03T10:26:52;102334.28;;;18.23;nan
3082;BME280;1551;51.046;7.010;2023-04-03T10:30:09;102338.59;;;18.76;nan
3082;BME280;1551;51.046;7.010;2023-04-03T10:34:13;102330.94;;;19.16;nan
3082;BME280;1551;51.046;7.010;2023-04-03T10:46:37;102334.16;;;21.14;nan
3082;BME280;1551;51.046;7.010;2023-04-03T10:52:45;102330.34;;;21.55;nan
3082;BME280;1551;51.046;7.010;2023-04-03T10:55:42;102338.28;;;21.50;nan
3082;BME280;1551;51.046;7.010;2023-04-03T10:58:43;102319.72;;;21.32;nan
3082;BME280;1551;51.046;7.010;2023-04-03T11:01:34;102321.69;;;21.54;nan
3082;BME280;1551;51.046;7.010;2023-04-03T11:04:27;102308.09;;;21.14;nan
3082;BME280;1551;51.046;7.010;2023-04-03T11:07:18;102309.56;;;22.09;nan
3082;BME280;1551;51.046;7.010;2023-04-03T11:10:39;102312.44;;;23.04;nan
3082;BME280;1551;51.046;7.010;2023-04-03T11:13:48;102308.88;;;23.30;nan
3082;BME280;1551;51.046;7.010;2023-04-03T11:16:46;102307.84;;;23.34;nan
3082;BME280;1551;51.046;7.010;2023-04-03T11:25:50;102309.66;;;23.32;nan
3082;BME280;1551;51.046;7.010;2023-04-03T11:28:41;102290.84;;;22.75;nan
3082;BME280;1551;51.046;7.010;2023-04-03T11:34:38;102296.69;;;23.29;nan
3082;BME280;1551;51.046;7.010;2023-04-03T11:37:39;102286.47;;;23.00;nan
3082;BME280;1551;51.046;7.010;2023-04-03T11:40:33;102284.84;;;23.20;nan
3082;BME280;1551;51.046;7.010;2023-04-03T11:43:26;102297.78;;;23.70;nan
3082;BME280;1551;51.046;7.010;2023-04-03T11:46:15;102279.63;;;23.44;nan
3082;BME280;1551;51.046;7.010;2023-04-03T11:58:33;102256.06;;;23.88;nan
3082;BME280;1551;51.046;7.010;2023-04-03T12:01:50;102262.00;;;23.25;nan
3082;BME280;1551;51.046;7.010;2023-04-03T12:08:25;102252.22;;;23.75;nan
3082;BME280;1551;51.046;7.010;2023-04-03T12:11:26;102259.22;;;23.30;nan
3082;BME280;1551;51.046;7.010;2023-04-03T12:14:17;102245.63;;;23.87;nan
3082;BME280;1551;51.046;7.010;2023-04-03T12:17:21;102235.59;;;24.40;nan
3082;BME280;1551;51.046;7.010;2023-04-03T12:20:52;102242.00;;;23.01;nan
3082;BME280;1551;51.046;7.010;2023-04-03T12:30:14;102223.53;;;23.94;nan
3082;BME280;1551;51.046;7.010;2023-04-03T12:36:12;102228.25;;;23.64;nan
3082;BME280;1551;51.046;7.010;2023-04-03T12:39:33;102231.78;;;23.42;nan
3082;BME280;1551;51.046;7.010;2023-04-03T12:42:37;102230.09;;;24.04;nan
3082;BME280;1551;51.046;7.010;2023-04-03T12:45:39;102229.78;;;23.48;nan
3082;BME280;1551;51.046;7.010;2023-04-03T12:48:31;102231.97;;;23.37;nan
3082;BME280;1551;51.046;7.010;2023-04-03T12:51:25;102228.03;;;23.25;nan
3082;BME280;1551;51.046;7.010;2023-04-03T12:57:15;102209.06;;;23.44;nan
3082;BME280;1551;51.046;7.010;2023-04-03T13:00:38;102211.50;;;23.70;nan
3082;BME280;1551;51.046;7.010;2023-04-03T13:03:28;102214.69;;;23.55;nan
3082;BME280;1551;51.046;7.010;2023-04-03T13:06:24;102197.44;;;24.14;nan
3082;BME280;1551;51.046;7.010;2023-04-03T13:09:24;102211.69;;;24.27;nan
3082;BME280;1551;51.046;7.010;2023-04-03T13:12:15;102207.41;;;24.05;nan
3082;BME280;1551;51.046;7.010;2023-04-03T13:15:16;102186.88;;;23.96;nan
3082;BME280;1551;51.046;7.010;2023-04-03T13:18:21;102192.81;;;23.79;nan
3082;BME280;1551;51.046;7.010;2023-04-03T13:21:15;102186.25;;;23.47;nan
3082;BME280;1551;51.046;7.010;2023-04-03T13:24:05;102192.28;;;23.04;nan
3082;BME280;1551;51.046;7.010;2023-04-03T13:26:54;102174.31;;;22.95;nan
3082;BME280;1551;51.046;7.010;2023-04-03T13:29:49;102180.97;;;23.90;nan
3082;BME280;1551;51.046;7.010;2023-04-03T13:32:43;102180.63;;;24.20;nan
3082;BME280;1551;51.046;7.010;2023-04-03T13:35:40;102184.88;;;23.60;nan
3082;BME280;1551;51.046;7.010;2023-04-03T13:38:31;102176.44;;;23.09;nan
3082;BME280;1551;51.046;7.010;2023-04-03T13:41:26;102172.44;;;22.51;nan
3082;BME280;1551;51.046;7.010;2023-04-03T13:47:37;102173.84;;;21.87;nan
3082;BME280;1551;51.046;7.010;2023-04-03T13:50:27;102181.44;;;22.19;nan
3082;BME280;1551;51.046;7.010;2023-04-03T13:53:17;102165.22;;;21.83;nan
3082;BME280;1551;51.046;7.010;2023-04-03T13:56:13;102160.16;;;21.25;nan
3082;BME280;1551;51.046;7.010;2023-04-03T14:04:57;102147.69;;;20.47;nan
3082;BME280;1551;51.046;7.010;2023-04-03T14:07:49;102150.31;;;21.35;nan
3082;BME280;1551;51.046;7.010;2023-04-03T14:10:38;102148.34;;;20.84;nan
3082;BME280;1551;51.046;7.010;2023-04-03T14:13:30;102148.38;;;20.21;nan
3082;BME280;1551;51.046;7.010;2023-04-03T14:16:25;102148.13;;;19.98;nan
3082;BME280;1551;51.046;7.010;2023-04-03T14:19:26;102134.44;;;19.19;nan
3082;BME280;1551;51.046;7.010;2023-04-03T14:22:23;102125.13;;;18.70;nan
3082;BME280;1551;51.046;7.010;2023-04-03T14:25:14;102140.41;;;18.39;nan
3082;BME280;1551;51.046;7.010;2023-04-03T14:28:17;102120.94;;;18.18;nan
3082;BME280;1551;51.046;7.010;2023-04-03T14:31:07;102119.56;;;17.99;nan
3082;BME280;1551;51.046;7.010;2023-04-03T14:33:56;102122.75;;;17.64;nan
3082;BME280;1551;51.046;7.010;2023-04-03T14:36:45;102116.03;;;17.51;nan
3082;BME280;1551;51.046;7.010;2023-04-03T14:39:35;102131.97;;;17.24;nan
3082;BME280;1551;51.046;7.010;2023-04-03T14:42:30;102117.34;;;17.22;nan
3082;BME280;1551;51.046;7.010;2023-04-03T14:45:21;102113.22;;;17.07;nan
3082;BME280;1551;51.046;7.010;2023-04-03T14:48:22;102124.13;;;16.65;nan
3082;BME280;1551;51.046;7.010;2023-04-03T14:51:13;102115.34;;;16.03;nan
3082;BME280;1551;51.046;7.010;2023-04-03T14:54:03;102110.44;;;15.73;nan
3082;BME280;1551;51.046;7.010;2023-04-03T14:56:57;102105.13;;;15.91;nan
3082;BME280;1551;51.046;7.010;2023-04-03T14:59:46;102098.38;;;15.73;nan
3082;BME280;1551;51.046;7.010;2023-04-03T15:02:37;102106.06;;;15.81;nan
3082;BME280;1551;51.046;7.010;2023-04-03T15:05:27;102100.13;;;15.73;nan
3082;BME280;1551;51.046;7.010;2023-04-03T15:08:25;102108.75;;;15.70;nan
3082;BME280;1551;51.046;7.010;2023-04-03T15:11:18;102111.50;;;15.49;nan
3082;BME280;1551;51.046;7.010;2023-04-03T15:14:09;102105.63;;;15.20;nan
3082;BME280;1551;51.046;7.010;2023-04-03T15:16:58;102095.50;;;14.87;nan
3082;BME280;1551;51.046;7.010;2023-04-03T15:19:47;102099.03;;;14.68;nan
3082;BME280;1551;51.046;7.010;2023-04-03T15:22:36;102099.94;;;14.56;nan
3082;BME280;1551;51.046;7.010;2023-04-03T15:25:26;102091.38;;;14.54;nan
3082;BME280;1551;51.046;7.010;2023-04-03T15:28:19;102099.13;;;14.51;nan
3082;BME280;1551;51.046;7.010;2023-04-03T15:31:10;102097.44;;;14.41;nan
3082;BME280;1551;51.046;7.010;2023-04-03T15:33:59;102100.88;;;14.28;nan
3082;BME280;1551;51.046;7.010;2023-04-03T15:36:49;102081.19;;;13.98;nan
3082;BME280;1551;51.046;7.010;2023-04-03T15:39:38;102101.81;;;13.78;nan
3082;BME280;1551;51.046;7.010;2023-04-03T15:42:27;102082.13;;;13.50;nan
3082;BME280;1551;51.046;7.010;2023-04-03T15:45:16;102100.09;;;13.56;nan
3082;BME280;1551;51.046;7.010;2023-04-03T15:48:06;102103.53;;;13.49;nan
3082;BME280;1551;51.046;7.010;2023-04-03T15:50:56;102103.53;;;13.46;nan
3082;BME280;1551;51.046;7.010;2023-04-03T15:53:45;102107.81;;;13.34;nan
3082;BME280;1551;51.046;7.010;2023-04-03T15:56:34;102102.63;;;13.13;nan
3082;BME280;1551;51.046;7.010;2023-04-03T15:59:23;102106.03;;;13.08;nan
3082;BME280;1551;51.046;7.010;2023-04-03T16:02:12;102109.47;;;13.18;nan
3082;BME280;1551;51.046;7.010;2023-04-03T16:05:02;102094.81;;;12.94;nan
3082;BME280;1551;51.046;7.010;2023-04-03T16:07:51;102111.06;;;12.81;nan
3082;BME280;1551;51.046;7.010;2023-04-03T16:10:40;102080.97;;;12.47;nan
3082;BME280;1551;51.046;7.010;2023-04-03T16:13:29;102096.41;;;12.59;nan
3082;BME280;1551;51.046;7.010;2023-04-03T16:16:19;102102.44;;;12.67;nan
3082;BME280;1551;51.046;7.010;2023-04-03T16:19:09;102098.97;;;12.53;nan
3082;BME280;1551;51.046;7.010;2023-04-03T16:21:58;102107.53;;;12.57;nan
3082;BME280;1551;51.046;7.010;2023-04-03T16:24:47;102105.84;;;12.59;nan
3082;BME280;1551;51.046;7.010;2023-04-03T16:27:37;102108.34;;;12.42;nan
3082;BME280;1551;51.046;7.010;2023-04-03T16:30:26;102115.06;;;12.19;nan
3082;BME280;1551;51.046;7.010;2023-04-03T16:33:15;102111.53;;;12.05;nan
3082;BME280;1551;51.046;7.010;2023-04-03T16:36:04;102113.97;;;11.91;nan
3082;BME280;1551;51.046;7.010;2023-04-03T16:38:54;102119.13;;;11.90;nan
3082;BME280;1551;51.046;7.010;2023-04-03T16:41:42;102106.22;;;11.81;nan
3082;BME280;1551;51.046;7.010;2023-04-03T16:44:31;102115.63;;;11.79;nan
3082;BME280;1551;51.046;7.010;2023-04-03T16:47:20;102116.38;;;11.68;nan
3082;BME280;1551;51.046;7.010;2023-04-03T16:50:10;102120.63;;;11.65;nan
3082;BME280;1551;51.046;7.010;2023-04-03T16:52:59;102118.75;;;11.52;nan
3082;BME280;1551;51.046;7.010;2023-04-03T16:55:49;102117.00;;;11.43;nan
3082;BME280;1551;51.046;7.010;2023-04-03T16:58:39;102133.13;;;11.35;nan
3082;BME280;1551;51.046;7.010;2023-04-03T17:01:28;102121.09;;;11.25;nan
3082;BME280;1551;51.046;7.010;2023-04-03T17:04:17;102116.69;;;11.16;nan
3082;BME280;1551;51.046;7.010;2023-04-03T17:07:06;102134.59;;;11.09;nan
3082;BME280;1551;51.046;7.010;2023-04-03T17:09:55;102133.63;;;11.02;nan
3082;BME280;1551;51.046;7.010;2023-04-03T17:12:45;102130.09;;;10.91;nan
3082;BME280;1551;51.046;7.010;2023-04-03T17:15:34;102123.22;;;10.85;nan
3082;BME280;1551;51.046;7.010;2023-04-03T17:18:23;102130.84;;;10.82;nan
3082;BME280;1551;51.046;7.010;2023-04-03T17:21:12;102129.06;;;10.75;nan
3082;BME280;1551;51.046;7.010;2023-04-03T17:24:05;102137.41;;;10.62;nan
3082;BME280;1551;51.046;7.010;2023-04-03T17:26:56;102134.72;;;10.53;nan
3082;BME280;1551;51.046;7.010;2023-04-03T17:29:45;102136.34;;;10.45;nan
3082;BME280;1551;51.046;7.010;2023-04-03T17:32:34;102127.69;;;10.38;nan
3082;BME280;1551;51.046;7.010;2023-04-03T17:35:24;102130.25;;;10.38;nan
3082;BME280;1551;51.046;7.010;2023-04-03T17:38:13;102134.44;;;10.32;nan
3082;BME280;1551;51.046;7.010;2023-04-03T17:41:05;102128.38;;;10.25;nan
3082;BME280;1551;51.046;7.010;2023-04-03T17:43:55;102131.69;;;10.18;nan
3082;BME280;1551;51.046;7.010;2023-04-03T17:46:45;102134.94;;;10.10;nan
3082;BME280;1551;51.046;7.010;2023-04-03T17:49:34;102139.06;;;10.00;nan
3082;BME280;1551;51.046;7.010;2023-04-03T17:52:23;102135.50;;;9.92;nan
3082;BME280;1551;51.046;7.010;2023-04-03T17:55:14;102137.13;;;9.86;nan
3082;BME280;1551;51.046;7.010;2023-04-03T17:58:05;102135.31;;;9.79;nan